sensor_id;sensor_type;location;lat;lon;timestamp;pressure;altitude;pressure_sealevel;temperature;humidity
62697;BME280;48761;42.680;23.312;2023-03-16T00:01:13;93985.69;;;4.56;75.94
62697;BME280;48761;42.680;23.312;2023-03-16T00:03:39;93989.81;;;4.60;75.50
62697;BME280;48761;42.680;23.312;2023-03-16T00:06:05;93996.03;;;4.45;76.01
62697;BME280;48761;42.680;23.312;2023-03-16T00:08:31;94005.16;;;4.54;75.62
62697;BME280;48761;42.680;23.312;2023-03-16T00:10:57;94002.06;;;4.91;74.88
62697;BME280;48761;42.680;23.312;2023-03-16T00:13:24;94000.38;;;5.04;73.57
62697;BME280;48761;42.680;23.312;2023-03-16T00:15:54;94008.47;;;4.72;73.85
62697;BME280;48761;42.680;23.312;2023-03-16T00:18:22;94012.41;;;4.65;74.53
62697;BME280;48761;42.680;23.312;2023-03-16T00:20:59;93975.78;;;4.45;74.80
62697;BME280;48761;42.680;23.312;2023-03-16T00:23:26;94014.75;;;4.69;75.72
62697;BME280;48761;42.680;23.312;2023-03-16T00:25:59;94015.38;;;4.58;75.75
62697;BME280;48761;42.680;23.312;2023-03-16T00:28:26;93992.81;;;4.40;74.94
62697;BME280;48761;42.680;23.312;2023-03-16T00:30:55;94006.56;;;4.45;75.90
62697;BME280;48761;42.680;23.312;2023-03-16T00:33:21;94015.41;;;4.73;74.86
62697;BME280;48761;42.680;23.312;2023-03-16T00:35:47;93985.88;;;4.68;74.08
62697;BME280;48761;42.680;23.312;2023-03-16T00:38:13;94020.88;;;4.70;75.28
62697;BME280;48761;42.680;23.312;2023-03-16T00:40:39;94020.38;;;4.18;76.02
62697;BME280;48761;42.680;23.312;2023-03-16T00:43:05;93996.19;;;4.27;75.51
62697;BME280;48761;42.680;23.312;2023-03-16T00:45:32;93994.28;;;4.14;75.75
62697;BME280;48761;42.680;23.312;2023-03-16T00:47:57;94002.72;;;4.20;75.86
62697;BME280;48761;42.680;23.312;2023-03-16T00:50:23;94020.25;;;4.50;75.67
62697;BME280;48761;42.680;23.312;2023-03-16T00:52:49;94023.47;;;4.55;74.92
62697;BME280;48761;42.680;23.312;2023-03-16T00:55:15;94025.56;;;4.79;74.71
62697;BME280;48761;42.680;23.312;2023-03-16T00:57:41;93989.81;;;4.46;74.89
62697;BME280;48761;42.680;23.312;2023-03-16T01:00:08;94019.22;;;4.53;74.89
62697;BME280;48761;42.680;23.312;2023-03-16T01:02:34;94016.13;;;4.15;75.46
62697;BME280;48761;42.680;23.312;2023-03-16T01:04:59;94014.91;;;4.37;75.39
62697;BME280;48761;42.680;23.312;2023-03-16T01:07:25;94022.78;;;4.06;75.48
62697;BME280;48761;42.680;23.312;2023-03-16T01:09:51;94019.25;;;3.91;76.68
62697;BME280;48761;42.680;23.312;2023-03-16T01:12:18;94026.88;;;3.96;76.58
62697;BME280;48761;42.680;23.312;2023-03-16T01:14:45;93960.97;;;3.52;77.06
62697;BME280;48761;42.680;23.312;2023-03-16T01:17:12;94036.66;;;3.94;76.73
62697;BME280;48761;42.680;23.312;2023-03-16T01:19:39;94023.63;;;3.76;76.63
62697;BME280;48761;42.680;23.312;2023-03-16T01:22:06;94031.84;;;3.69;77.15
62697;BME280;48761;42.680;23.312;2023-03-16T01:24:33;94023.34;;;3.64;77.17
62697;BME280;48761;42.680;23.312;2023-03-16T01:26:59;94034.03;;;3.77;77.27
62697;BME280;48761;42.680;23.312;2023-03-16T01:29:25;94014.03;;;3.75;76.97
62697;BME280;48761;42.680;23.312;2023-03-16T01:31:51;94011.28;;;3.92;77.59
62697;BME280;48761;42.680;23.312;2023-03-16T01:34:17;94038.00;;;4.01;77.31
62697;BME280;48761;42.680;23.312;2023-03-16T01:36:46;94020.13;;;3.91;77.15
62697;BME280;48761;42.680;23.312;2023-03-16T01:39:13;94042.50;;;3.99;78.04
62697;BME280;48761;42.680;23.312;2023-03-16T01:41:41;94044.00;;;4.03;78.09
62697;BME280;48761;42.680;23.312;2023-03-16T01:44:22;94043.47;;;4.12;77.56
62697;BME280;48761;42.680;23.312;2023-03-16T01:46:49;94041.63;;;4.14;76.92
62697;BME280;48761;42.680;23.312;2023-03-16T01:49:29;94039.38;;;3.76;77.61
62697;BME280;48761;42.680;23.312;2023-03-16T01:52:02;94054.25;;;4.08;77.30
62697;BME280;48761;42.680;23.312;2023-03-16T01:54:44;94056.94;;;3.75;77.65
62697;BME280;48761;42.680;23.312;2023-03-16T01:59:52;94037.94;;;3.86;77.16
62697;BME280;48761;42.680;23.312;2023-03-16T02:02:22;94057.56;;;4.11;76.88
62697;BME280;48761;42.680;23.312;2023-03-16T02:05:04;94067.78;;;3.85;76.87
62697;BME280;48761;42.680;23.312;2023-03-16T02:07:40;94072.47;;;3.47;76.86
62697;BME280;48761;42.680;23.312;2023-03-16T02:10:08;94081.00;;;3.35;77.08
62697;BME280;48761;42.680;23.312;2023-03-16T02:12:35;94071.69;;;3.62;77.59
62697;BME280;48761;42.680;23.312;2023-03-16T02:15:01;94075.25;;;3.44;77.82
62697;BME280;48761;42.680;23.312;2023-03-16T02:17:28;94060.69;;;3.39;77.35
62697;BME280;48761;42.680;23.312;2023-03-16T02:20:08;94073.97;;;3.52;77.72
62697;BME280;48761;42.680;23.312;2023-03-16T02:22:40;94081.53;;;3.74;77.47
62697;BME280;48761;42.680;23.312;2023-03-16T02:25:08;94083.91;;;3.79;77.11
62697;BME280;48761;42.680;23.312;2023-03-16T02:27:52;94088.91;;;3.51;77.55
62697;BME280;48761;42.680;23.312;2023-03-16T02:30:22;94081.84;;;3.52;77.63
62697;BME280;48761;42.680;23.312;2023-03-16T02:32:49;94084.91;;;3.44;78.21
62697;BME280;48761;42.680;23.312;2023-03-16T02:35:17;94103.28;;;3.44;78.91
62697;BME280;48761;42.680;23.312;2023-03-16T02:37:43;94093.97;;;3.54;78.35
62697;BME280;48761;42.680;23.312;2023-03-16T02:40:20;94105.75;;;3.31;78.83
62697;BME280;48761;42.680;23.312;2023-03-16T02:42:49;94084.22;;;3.40;79.64
62697;BME280;48761;42.680;23.312;2023-03-16T02:45:17;94095.63;;;3.73;78.33
62697;BME280;48761;42.680;23.312;2023-03-16T02:47:43;94069.38;;;3.39;78.60
62697;BME280;48761;42.680;23.312;2023-03-16T02:50:11;94103.59;;;3.72;78.75
62697;BME280;48761;42.680;23.312;2023-03-16T02:52:38;94110.53;;;3.73;78.66
62697;BME280;48761;42.680;23.312;2023-03-16T02:55:05;94085.94;;;3.74;78.11
62697;BME280;48761;42.680;23.312;2023-03-16T02:57:32;94114.56;;;3.30;79.14
62697;BME280;48761;42.680;23.312;2023-03-16T02:59:58;94097.28;;;3.25;80.23
62697;BME280;48761;42.680;23.312;2023-03-16T03:02:24;94103.31;;;3.60;79.45
62697;BME280;48761;42.680;23.312;2023-03-16T03:04:49;94111.56;;;3.70;79.23
62697;BME280;48761;42.680;23.312;2023-03-16T03:07:15;94102.22;;;3.97;78.05
62697;BME280;48761;42.680;23.312;2023-03-16T03:09:42;94103.38;;;4.07;77.68
62697;BME280;48761;42.680;23.312;2023-03-16T03:12:09;94115.19;;;4.00;77.71
62697;BME280;48761;42.680;23.312;2023-03-16T03:14:35;94120.22;;;3.88;76.87
62697;BME280;48761;42.680;23.312;2023-03-16T03:17:01;94127.84;;;3.93;76.80
62697;BME280;48761;42.680;23.312;2023-03-16T03:19:27;94124.78;;;3.85;77.55
62697;BME280;48761;42.680;23.312;2023-03-16T03:21:52;94128.41;;;3.82;77.34
62697;BME280;48761;42.680;23.312;2023-03-16T03:24:18;94136.88;;;3.55;78.59
62697;BME280;48761;42.680;23.312;2023-03-16T03:26:44;94142.41;;;2.98;80.30
62697;BME280;48761;42.680;23.312;2023-03-16T03:29:10;94131.13;;;3.14;79.96
62697;BME280;48761;42.680;23.312;2023-03-16T03:31:36;94146.94;;;3.46;79.32
62697;BME280;48761;42.680;23.312;2023-03-16T03:34:02;94134.75;;;3.45;78.49
62697;BME280;48761;42.680;23.312;2023-03-16T03:36:28;94148.75;;;3.12;79.75
62697;BME280;48761;42.680;23.312;2023-03-16T03:38:54;94103.88;;;2.65;79.37
62697;BME280;48761;42.680;23.312;2023-03-16T03:41:19;94150.41;;;3.31;78.97
62697;BME280;48761;42.680;23.312;2023-03-16T03:43:45;94131.16;;;2.96;79.04
62697;BME280;48761;42.680;23.312;2023-03-16T03:46:11;94096.72;;;3.02;78.64
62697;BME280;48761;42.680;23.312;2023-03-16T03:48:37;94153.03;;;3.31;78.64
62697;BME280;48761;42.680;23.312;2023-03-16T03:51:03;94159.72;;;3.02;79.43
62697;BME280;48761;42.680;23.312;2023-03-16T03:53:29;94154.16;;;3.09;79.29
62697;BME280;48761;42.680;23.312;2023-03-16T03:55:55;94170.53;;;3.14;78.94
62697;BME280;48761;42.680;23.312;2023-03-16T03:58:21;94165.63;;;2.90;78.65
62697;BME280;48761;42.680;23.312;2023-03-16T04:00:47;94185.88;;;3.22;78.40
62697;BME280;48761;42.680;23.312;2023-03-16T04:03:13;94186.16;;;2.99;78.71
62697;BME280;48761;42.680;23.312;2023-03-16T04:05:39;94189.91;;;3.11;78.64
62697;BME280;48761;42.680;23.312;2023-03-16T04:08:05;94189.88;;;2.95;78.90
62697;BME280;48761;42.680;23.312;2023-03-16T04:10:30;94168.28;;;2.88;79.05
62697;BME280;48761;42.680;23.312;2023-03-16T04:12:57;94184.28;;;3.01;78.63
62697;BME280;48761;42.680;23.312;2023-03-16T04:15:24;94167.63;;;2.85;79.47
62697;BME280;48761;42.680;23.312;2023-03-16T04:17:51;94185.00;;;3.05;79.40
62697;BME280;48761;42.680;23.312;2023-03-16T04:20:18;94185.28;;;3.17;78.71
62697;BME280;48761;42.680;23.312;2023-03-16T04:22:47;94183.03;;;2.91;79.63
62697;BME280;48761;42.680;23.312;2023-03-16T04:25:16;94193.09;;;3.00;79.33
62697;BME280;48761;42.680;23.312;2023-03-16T04:27:42;94199.88;;;3.22;78.85
62697;BME280;48761;42.680;23.312;2023-03-16T04:30:11;94186.09;;;3.35;78.59
62697;BME280;48761;42.680;23.312;2023-03-16T04:32:38;94206.97;;;3.38;78.02
62697;BME280;48761;42.680;23.312;2023-03-16T04:35:05;94194.38;;;3.27;77.24
62697;BME280;48761;42.680;23.312;2023-03-16T04:37:31;94208.34;;;3.45;77.74
62697;BME280;48761;42.680;23.312;2023-03-16T04:39:57;94213.09;;;3.55;77.39
62697;BME280;48761;42.680;23.312;2023-03-16T04:42:23;94216.78;;;3.34;78.68
62697;BME280;48761;42.680;23.312;2023-03-16T04:44:49;94215.16;;;2.78;79.22
62697;BME280;48761;42.680;23.312;2023-03-16T04:47:15;94217.50;;;3.02;78.83
62697;BME280;48761;42.680;23.312;2023-03-16T04:49:42;94183.84;;;2.93;78.77
62697;BME280;48761;42.680;23.312;2023-03-16T04:52:08;94224.91;;;3.30;78.47
62697;BME280;48761;42.680;23.312;2023-03-16T04:54:34;94235.25;;;3.33;77.54
62697;BME280;48761;42.680;23.312;2023-03-16T04:57:00;94230.00;;;3.33;77.22
62697;BME280;48761;42.680;23.312;2023-03-16T04:59:26;94244.69;;;3.19;77.40
62697;BME280;48761;42.680;23.312;2023-03-16T05:01:52;94233.16;;;3.22;77.58
62697;BME280;48761;42.680;23.312;2023-03-16T05:04:18;94236.28;;;2.95;78.29
62697;BME280;48761;42.680;23.312;2023-03-16T05:06:44;94225.53;;;3.17;77.59
62697;BME280;48761;42.680;23.312;2023-03-16T05:09:10;94256.28;;;2.97;78.35
62697;BME280;48761;42.680;23.312;2023-03-16T05:11:36;94257.06;;;3.17;78.29
62697;BME280;48761;42.680;23.312;2023-03-16T05:14:03;94249.78;;;3.22;77.75
62697;BME280;48761;42.680;23.312;2023-03-16T05:16:29;94254.13;;;3.06;77.97
62697;BME280;48761;42.680;23.312;2023-03-16T05:19:02;94253.22;;;2.69;78.14
62697;BME280;48761;42.680;23.312;2023-03-16T05:21:29;94183.22;;;2.33;79.10
62697;BME280;48761;42.680;23.312;2023-03-16T05:23:55;94195.69;;;2.47;78.30
62697;BME280;48761;42.680;23.312;2023-03-16T05:26:21;94219.94;;;2.52;78.08
62697;BME280;48761;42.680;23.312;2023-03-16T05:28:49;94259.47;;;2.67;78.49
62697;BME280;48761;42.680;23.312;2023-03-16T05:31:18;94261.63;;;2.58;78.97
62697;BME280;48761;42.680;23.312;2023-03-16T05:33:44;94247.91;;;2.71;79.13
62697;BME280;48761;42.680;23.312;2023-03-16T05:36:10;94283.28;;;2.82;79.36
62697;BME280;48761;42.680;23.312;2023-03-16T05:38:36;94272.91;;;2.78;79.38
62697;BME280;48761;42.680;23.312;2023-03-16T05:41:02;94261.38;;;2.83;78.94
62697;BME280;48761;42.680;23.312;2023-03-16T05:43:29;94278.03;;;2.82;78.69
62697;BME280;48761;42.680;23.312;2023-03-16T05:45:55;94263.66;;;2.89;78.82
62697;BME280;48761;42.680;23.312;2023-03-16T05:48:22;94285.72;;;2.67;77.85
62697;BME280;48761;42.680;23.312;2023-03-16T05:50:49;94283.59;;;2.75;80.06
62697;BME280;48761;42.680;23.312;2023-03-16T05:53:15;94288.25;;;2.88;79.96
62697;BME280;48761;42.680;23.312;2023-03-16T05:55:41;94297.22;;;3.19;78.96
62697;BME280;48761;42.680;23.312;2023-03-16T05:58:07;94285.31;;;3.12;78.68
62697;BME280;48761;42.680;23.312;2023-03-16T06:00:33;94309.59;;;3.17;78.60
62697;BME280;48761;42.680;23.312;2023-03-16T06:02:59;94301.13;;;2.75;79.08
62697;BME280;48761;42.680;23.312;2023-03-16T06:05:25;94297.28;;;3.00;78.76
62697;BME280;48761;42.680;23.312;2023-03-16T06:07:51;94291.81;;;3.05;78.60
62697;BME280;48761;42.680;23.312;2023-03-16T06:10:17;94296.69;;;3.12;78.23
62697;BME280;48761;42.680;23.312;2023-03-16T06:12:43;94316.56;;;3.18;78.35
62697;BME280;48761;42.680;23.312;2023-03-16T06:15:10;94305.81;;;2.86;78.86
62697;BME280;48761;42.680;23.312;2023-03-16T06:17:37;94316.94;;;3.10;78.85
62697;BME280;48761;42.680;23.312;2023-03-16T06:20:05;94323.19;;;3.08;79.68
62697;BME280;48761;42.680;23.312;2023-03-16T06:22:31;94322.25;;;3.09;79.08
62697;BME280;48761;42.680;23.312;2023-03-16T06:24:57;94330.50;;;3.01;78.97
62697;BME280;48761;42.680;23.312;2023-03-16T06:27:23;94331.31;;;3.21;77.81
62697;BME280;48761;42.680;23.312;2023-03-16T06:29:49;94334.69;;;3.05;77.84
62697;BME280;48761;42.680;23.312;2023-03-16T06:32:15;94329.47;;;3.23;77.92
62697;BME280;48761;42.680;23.312;2023-03-16T06:34:41;94340.03;;;3.21;77.86
62697;BME280;48761;42.680;23.312;2023-03-16T06:37:07;94339.88;;;3.42;77.14
62697;BME280;48761;42.680;23.312;2023-03-16T06:39:33;94351.66;;;3.53;76.19
62697;BME280;48761;42.680;23.312;2023-03-16T06:41:59;94354.13;;;3.38;76.57
62697;BME280;48761;42.680;23.312;2023-03-16T06:44:25;94348.53;;;3.44;77.31
62697;BME280;48761;42.680;23.312;2023-03-16T06:46:51;94352.56;;;3.52;75.87
62697;BME280;48761;42.680;23.312;2023-03-16T06:49:16;94354.75;;;3.43;75.35
62697;BME280;48761;42.680;23.312;2023-03-16T06:51:42;94363.97;;;3.15;76.04
62697;BME280;48761;42.680;23.312;2023-03-16T06:54:08;94373.38;;;3.01;75.77
62697;BME280;48761;42.680;23.312;2023-03-16T06:56:34;94347.66;;;2.52;76.78
62697;BME280;48761;42.680;23.312;2023-03-16T06:59:00;94364.75;;;2.61;77.33
62697;BME280;48761;42.680;23.312;2023-03-16T07:01:26;94378.22;;;2.72;77.77
62697;BME280;48761;42.680;23.312;2023-03-16T07:03:52;94388.44;;;2.59;78.31
62697;BME280;48761;42.680;23.312;2023-03-16T07:06:18;94391.78;;;2.63;77.67
62697;BME280;48761;42.680;23.312;2023-03-16T07:08:44;94382.34;;;2.78;78.54
62697;BME280;48761;42.680;23.312;2023-03-16T07:11:09;94398.75;;;3.20;77.85
62697;BME280;48761;42.680;23.312;2023-03-16T07:13:36;94389.66;;;3.28;77.38
62697;BME280;48761;42.680;23.312;2023-03-16T07:16:02;94388.56;;;3.32;77.37
62697;BME280;48761;42.680;23.312;2023-03-16T07:18:28;94391.47;;;3.08;77.42
62697;BME280;48761;42.680;23.312;2023-03-16T07:20:57;94395.84;;;3.44;77.39
62697;BME280;48761;42.680;23.312;2023-03-16T07:23:24;94393.06;;;3.47;76.78
62697;BME280;48761;42.680;23.312;2023-03-16T07:25:51;94369.59;;;3.07;76.61
62697;BME280;48761;42.680;23.312;2023-03-16T07:28:18;94411.41;;;3.12;77.23
62697;BME280;48761;42.680;23.312;2023-03-16T07:30:45;94389.34;;;3.34;76.70
62697;BME280;48761;42.680;23.312;2023-03-16T07:33:11;94407.56;;;3.56;76.35
62697;BME280;48761;42.680;23.312;2023-03-16T07:35:37;94405.19;;;2.95;77.75
62697;BME280;48761;42.680;23.312;2023-03-16T07:38:03;94388.84;;;3.08;76.93
62697;BME280;48761;42.680;23.312;2023-03-16T07:40:29;94406.72;;;3.36;76.74
62697;BME280;48761;42.680;23.312;2023-03-16T07:42:55;94369.28;;;3.13;76.14
62697;BME280;48761;42.680;23.312;2023-03-16T07:45:21;94419.94;;;3.35;75.61
62697;BME280;48761;42.680;23.312;2023-03-16T07:47:49;94420.31;;;3.27;76.48
62697;BME280;48761;42.680;23.312;2023-03-16T07:50:15;94427.84;;;3.35;76.49
62697;BME280;48761;42.680;23.312;2023-03-16T07:52:41;94425.69;;;3.43;76.45
62697;BME280;48761;42.680;23.312;2023-03-16T07:55:11;94421.59;;;3.38;74.97
62697;BME280;48761;42.680;23.312;2023-03-16T07:57:37;94423.97;;;3.42;75.36
62697;BME280;48761;42.680;23.312;2023-03-16T08:00:03;94369.69;;;3.06;75.62
62697;BME280;48761;42.680;23.312;2023-03-16T08:02:29;94417.78;;;3.25;76.13
62697;BME280;48761;42.680;23.312;2023-03-16T08:04:55;94394.28;;;3.22;76.37
62697;BME280;48761;42.680;23.312;2023-03-16T08:07:23;94418.03;;;3.39;75.79
62697;BME280;48761;42.680;23.312;2023-03-16T08:09:50;94409.94;;;3.43;75.61
62697;BME280;48761;42.680;23.312;2023-03-16T08:12:16;94427.09;;;3.51;75.46
62697;BME280;48761;42.680;23.312;2023-03-16T08:14:42;94414.06;;;3.30;75.20
62697;BME280;48761;42.680;23.312;2023-03-16T08:17:08;94433.94;;;3.35;76.61
62697;BME280;48761;42.680;23.312;2023-03-16T08:19:34;94404.47;;;3.11;76.56
62697;BME280;48761;42.680;23.312;2023-03-16T08:22:01;94441.28;;;3.46;76.18
62697;BME280;48761;42.680;23.312;2023-03-16T08:24:28;94413.06;;;3.32;76.42
62697;BME280;48761;42.680;23.312;2023-03-16T08:26:55;94427.28;;;3.28;77.40
62697;BME280;48761;42.680;23.312;2023-03-16T08:29:21;94426.13;;;3.34;77.08
62697;BME280;48761;42.680;23.312;2023-03-16T08:31:47;94439.75;;;3.42;76.72
62697;BME280;48761;42.680;23.312;2023-03-16T08:34:13;94457.78;;;3.50;76.21
62697;BME280;48761;42.680;23.312;2023-03-16T08:36:39;94425.44;;;3.30;76.08
62697;BME280;48761;42.680;23.312;2023-03-16T08:39:09;94420.88;;;3.34;75.91
62697;BME280;48761;42.680;23.312;2023-03-16T08:41:36;94447.19;;;3.69;76.43
62697;BME280;48761;42.680;23.312;2023-03-16T08:44:05;94428.63;;;3.55;75.36
62697;BME280;48761;42.680;23.312;2023-03-16T08:46:37;94384.84;;;3.18;74.89
62697;BME280;48761;42.680;23.312;2023-03-16T08:49:04;94431.88;;;3.60;75.05
62697;BME280;48761;42.680;23.312;2023-03-16T08:51:42;94416.88;;;3.44;74.45
62697;BME280;48761;42.680;23.312;2023-03-16T08:54:08;94429.59;;;3.54;74.82
62697;BME280;48761;42.680;23.312;2023-03-16T08:56:34;94436.53;;;3.73;74.40
62697;BME280;48761;42.680;23.312;2023-03-16T08:59:00;94463.94;;;3.86;72.54
62697;BME280;48761;42.680;23.312;2023-03-16T09:01:30;94391.44;;;3.45;71.69
62697;BME280;48761;42.680;23.312;2023-03-16T09:04:01;94395.56;;;3.51;72.41
62697;BME280;48761;42.680;23.312;2023-03-16T09:06:31;94471.50;;;3.75;73.64
62697;BME280;48761;42.680;23.312;2023-03-16T09:09:04;94439.75;;;3.42;72.70
62697;BME280;48761;42.680;23.312;2023-03-16T09:11:32;94435.34;;;3.43;72.60
62697;BME280;48761;42.680;23.312;2023-03-16T09:14:01;94468.31;;;3.68;72.40
62697;BME280;48761;42.680;23.312;2023-03-16T09:16:30;94471.06;;;3.84;71.96
62697;BME280;48761;42.680;23.312;2023-03-16T09:19:08;94485.72;;;3.70;72.22
62697;BME280;48761;42.680;23.312;2023-03-16T09:21:35;94421.97;;;3.47;71.90
62697;BME280;48761;42.680;23.312;2023-03-16T09:24:01;94482.50;;;3.83;72.56
62697;BME280;48761;42.680;23.312;2023-03-16T09:26:27;94453.88;;;3.95;72.45
62697;BME280;48761;42.680;23.312;2023-03-16T09:28:53;94471.34;;;3.96;72.13
62697;BME280;48761;42.680;23.312;2023-03-16T09:31:19;94481.88;;;4.13;72.13
62697;BME280;48761;42.680;23.312;2023-03-16T09:33:45;94463.88;;;3.51;71.57
62697;BME280;48761;42.680;23.312;2023-03-16T09:36:13;94455.72;;;3.92;70.44
62697;BME280;48761;42.680;23.312;2023-03-16T09:38:40;94453.25;;;3.89;71.37
62697;BME280;48761;42.680;23.312;2023-03-16T09:41:11;94467.16;;;3.56;71.49
62697;BME280;48761;42.680;23.312;2023-03-16T09:46:31;94483.06;;;3.53;71.61
62697;BME280;48761;42.680;23.312;2023-03-16T09:48:58;94451.97;;;3.43;71.13
62697;BME280;48761;42.680;23.312;2023-03-16T09:53:58;94484.09;;;3.68;71.37
62697;BME280;48761;42.680;23.312;2023-03-16T09:56:34;94493.91;;;3.82;72.09
62697;BME280;48761;42.680;23.312;2023-03-16T09:59:10;94464.91;;;3.29;73.58
62697;BME280;48761;42.680;23.312;2023-03-16T10:01:39;94497.13;;;3.52;74.17
62697;BME280;48761;42.680;23.312;2023-03-16T10:09:41;94472.50;;;3.35;73.93
62697;BME280;48761;42.680;23.312;2023-03-16T10:12:10;94490.44;;;3.44;73.74
62697;BME280;48761;42.680;23.312;2023-03-16T10:14:47;94496.16;;;3.35;73.66
62697;BME280;48761;42.680;23.312;2023-03-16T10:20:14;94451.56;;;3.14;72.76
62697;BME280;48761;42.680;23.312;2023-03-16T10:22:45;94469.25;;;3.30;71.75
62697;BME280;48761;42.680;23.312;2023-03-16T10:25:22;94500.81;;;3.47;72.39
62697;BME280;48761;42.680;23.312;2023-03-16T10:27:55;94490.88;;;3.54;72.48
62697;BME280;48761;42.680;23.312;2023-03-16T10:30:30;94490.06;;;3.89;71.99
62697;BME280;48761;42.680;23.312;2023-03-16T10:33:01;94497.97;;;3.72;72.17
62697;BME280;48761;42.680;23.312;2023-03-16T10:36:04;94472.19;;;3.61;71.95
62697;BME280;48761;42.680;23.312;2023-03-16T10:38:57;94493.88;;;4.01;72.69
62697;BME280;48761;42.680;23.312;2023-03-16T10:41:30;94494.66;;;4.03;71.62
62697;BME280;48761;42.680;23.312;2023-03-16T10:44:11;94491.38;;;3.80;72.56
62697;BME280;48761;42.680;23.312;2023-03-16T10:46:48;94492.97;;;3.65;72.61
62697;BME280;48761;42.680;23.312;2023-03-16T10:49:23;94477.81;;;3.53;72.36
62697;BME280;48761;42.680;23.312;2023-03-16T10:51:55;94473.28;;;3.92;73.17
62697;BME280;48761;42.680;23.312;2023-03-16T10:54:31;94487.44;;;3.89;72.08
62697;BME280;48761;42.680;23.312;2023-03-16T10:56:58;94446.59;;;3.82;72.09
62697;BME280;48761;42.680;23.312;2023-03-16T10:59:29;94497.19;;;4.23;70.23
62697;BME280;48761;42.680;23.312;2023-03-16T11:01:55;94486.38;;;3.94;69.43
62697;BME280;48761;42.680;23.312;2023-03-16T11:04:21;94474.91;;;4.12;69.77
62697;BME280;48761;42.680;23.312;2023-03-16T11:06:56;94491.88;;;4.24;69.32
62697;BME280;48761;42.680;23.312;2023-03-16T11:09:31;94477.22;;;3.83;69.24
62697;BME280;48761;42.680;23.312;2023-03-16T11:11:58;94493.53;;;3.90;68.60
62697;BME280;48761;42.680;23.312;2023-03-16T11:14:26;94440.66;;;3.78;68.92
62697;BME280;48761;42.680;23.312;2023-03-16T11:17:02;94438.00;;;3.61;68.46
62697;BME280;48761;42.680;23.312;2023-03-16T11:19:58;94495.94;;;3.77;68.44
62697;BME280;48761;42.680;23.312;2023-03-16T11:22:26;94497.66;;;3.78;68.17
62697;BME280;48761;42.680;23.312;2023-03-16T11:25:13;94502.63;;;3.84;68.49
62697;BME280;48761;42.680;23.312;2023-03-16T11:30:15;94496.31;;;3.69;69.19
62697;BME280;48761;42.680;23.312;2023-03-16T11:32:49;94494.53;;;3.69;68.49
62697;BME280;48761;42.680;23.312;2023-03-16T11:35:16;94495.63;;;3.83;69.19
62697;BME280;48761;42.680;23.312;2023-03-16T11:43:04;94498.09;;;3.68;68.98
62697;BME280;48761;42.680;23.312;2023-03-16T11:48:05;94497.19;;;3.87;68.60
62697;BME280;48761;42.680;23.312;2023-03-16T11:53:13;94500.78;;;3.67;69.45
62697;BME280;48761;42.680;23.312;2023-03-16T12:09:07;94516.19;;;3.75;68.58
62697;BME280;48761;42.680;23.312;2023-03-16T12:11:52;94513.81;;;3.88;68.75
62697;BME280;48761;42.680;23.312;2023-03-16T12:14:43;94503.81;;;3.77;69.07
62697;BME280;48761;42.680;23.312;2023-03-16T12:17:15;94522.41;;;3.91;68.93
62697;BME280;48761;42.680;23.312;2023-03-16T12:20:04;94478.25;;;3.43;69.61
62697;BME280;48761;42.680;23.312;2023-03-16T12:22:39;94525.84;;;3.56;68.75
62697;BME280;48761;42.680;23.312;2023-03-16T12:25:21;94510.25;;;3.52;69.24
62697;BME280;48761;42.680;23.312;2023-03-16T12:27:51;94516.47;;;3.51;69.63
62697;BME280;48761;42.680;23.312;2023-03-16T12:41:15;94546.28;;;3.69;69.70
62697;BME280;48761;42.680;23.312;2023-03-16T12:47:28;94543.94;;;3.63;70.35
62697;BME280;48761;42.680;23.312;2023-03-16T12:50:09;94564.34;;;3.38;72.00
62697;BME280;48761;42.680;23.312;2023-03-16T12:52:44;94558.38;;;3.54;72.65
62697;BME280;48761;42.680;23.312;2023-03-16T12:57:49;94550.00;;;3.45;74.12
62697;BME280;48761;42.680;23.312;2023-03-16T13:00:16;94564.69;;;3.69;74.12
62697;BME280;48761;42.680;23.312;2023-03-16T13:02:46;94563.19;;;3.63;74.72
62697;BME280;48761;42.680;23.312;2023-03-16T13:05:17;94557.63;;;3.69;75.07
62697;BME280;48761;42.680;23.312;2023-03-16T13:07:50;94554.41;;;3.25;76.07
62697;BME280;48761;42.680;23.312;2023-03-16T13:10:18;94564.75;;;3.48;77.03
62697;BME280;48761;42.680;23.312;2023-03-16T13:12:44;94570.44;;;3.58;77.28
62697;BME280;48761;42.680;23.312;2023-03-16T13:17:46;94569.31;;;3.64;77.08
62697;BME280;48761;42.680;23.312;2023-03-16T13:22:47;94540.75;;;3.17;77.99
62697;BME280;48761;42.680;23.312;2023-03-16T13:25:39;94545.84;;;3.01;78.42
62697;BME280;48761;42.680;23.312;2023-03-16T13:28:07;94527.09;;;3.09;79.09
62697;BME280;48761;42.680;23.312;2023-03-16T13:30:35;94575.75;;;3.37;78.36
62697;BME280;48761;42.680;23.312;2023-03-16T13:33:20;94578.38;;;3.37;78.27
62697;BME280;48761;42.680;23.312;2023-03-16T13:35:48;94545.44;;;3.30;78.02
62697;BME280;48761;42.680;23.312;2023-03-16T13:38:17;94561.34;;;3.27;77.86
62697;BME280;48761;42.680;23.312;2023-03-16T13:40:47;94546.13;;;3.14;77.26
62697;BME280;48761;42.680;23.312;2023-03-16T13:43:14;94572.44;;;3.53;76.48
62697;BME280;48761;42.680;23.312;2023-03-16T13:45:41;94591.44;;;3.77;76.53
62697;BME280;48761;42.680;23.312;2023-03-16T13:48:11;94581.09;;;3.55;75.88
62697;BME280;48761;42.680;23.312;2023-03-16T13:50:38;94573.44;;;3.50;76.38
62697;BME280;48761;42.680;23.312;2023-03-16T13:53:12;94595.38;;;3.68;75.84
62697;BME280;48761;42.680;23.312;2023-03-16T13:55:39;94597.13;;;3.87;75.91
62697;BME280;48761;42.680;23.312;2023-03-16T13:58:18;94585.19;;;3.80;74.65
62697;BME280;48761;42.680;23.312;2023-03-16T14:00:45;94561.78;;;3.56;76.04
62697;BME280;48761;42.680;23.312;2023-03-16T14:03:16;94577.47;;;3.95;75.44
62697;BME280;48761;42.680;23.312;2023-03-16T14:05:44;94577.81;;;3.50;74.92
62697;BME280;48761;42.680;23.312;2023-03-16T14:08:18;94567.84;;;3.39;75.31
62697;BME280;48761;42.680;23.312;2023-03-16T14:10:45;94555.09;;;3.49;74.27
62697;BME280;48761;42.680;23.312;2023-03-16T14:15:58;94616.47;;;3.86;74.48